createdAt,value
2022-08-22T00:00:01.162Z,91.2
2022-08-22T00:01:00.315Z,90.7
2022-08-22T00:02:00.555Z,90.5
2022-08-22T00:03:07.954Z,89.6
2022-08-22T00:03:15.129Z,90.8
2022-08-22T00:04:00.788Z,90.5
2022-08-22T00:05:00.931Z,90.4
2022-08-22T00:06:01.083Z,90
2022-08-22T00:07:01.259Z,89.9
2022-08-22T00:08:00.508Z,90.1
2022-08-22T00:09:00.537Z,90.2
2022-08-22T00:10:00.689Z,90.4
2022-08-22T00:11:00.830Z,90.3
2022-08-22T00:12:00.994Z,90.2
2022-08-22T00:13:01.159Z,90.2
2022-08-22T00:14:01.494Z,90.4
2022-08-22T00:15:00.448Z,90.6
2022-08-22T00:16:00.603Z,90.4
2022-08-22T00:17:00.750Z,90.2
2022-08-22T00:18:00.913Z,90.3
2022-08-22T00:19:01.077Z,90
2022-08-22T00:20:01.194Z,90
2022-08-22T00:21:00.347Z,90.2
2022-08-22T00:22:00.514Z,89.8
2022-08-22T00:23:00.661Z,90
2022-08-22T00:24:00.828Z,89.8
2022-08-22T00:25:00.975Z,89.7
2022-08-22T00:26:01.109Z,90.1
2022-08-22T00:27:00.261Z,90.3
2022-08-22T00:28:00.696Z,90.6
2022-08-22T00:29:00.573Z,90.8
2022-08-22T00:30:00.742Z,90.3
2022-08-22T00:31:00.871Z,90.3
2022-08-22T00:32:01.028Z,90.5
2022-08-22T00:33:01.177Z,90.1
2022-08-22T00:34:00.327Z,90.7
2022-08-22T00:35:00.489Z,90.8
2022-08-22T00:36:00.624Z,90.7
2022-08-22T00:37:00.773Z,90.6
2022-08-22T00:38:00.932Z,90.8
2022-08-22T00:39:01.068Z,90.8
2022-08-22T00:40:03.366Z,90.9
2022-08-22T00:41:00.373Z,90.9
2022-08-22T00:42:00.528Z,90.8
2022-08-22T00:43:00.675Z,90.7
2022-08-22T00:44:00.829Z,90.7
2022-08-22T00:45:00.990Z,90.6
2022-08-22T00:46:01.122Z,90.6
2022-08-22T00:47:00.279Z,90.6
2022-08-22T00:48:00.597Z,90.9
2022-08-22T00:49:00.586Z,91.1
2022-08-22T00:50:00.750Z,91.2
2022-08-22T00:51:00.883Z,91.1
2022-08-22T00:52:01.036Z,91
2022-08-22T00:53:01.189Z,91.2
2022-08-22T00:54:00.335Z,91.1
2022-08-22T00:55:00.514Z,90.6
2022-08-22T00:56:00.637Z,90.4
2022-08-22T00:57:00.794Z,90.4
2022-08-22T00:58:00.950Z,90.5
2022-08-22T00:59:01.086Z,90.5
2022-08-22T01:00:01.274Z,90.5
2022-08-22T01:01:00.455Z,90.5
2022-08-22T01:02:00.554Z,90.7
2022-08-22T01:03:00.705Z,90.4
2022-08-22T01:04:00.860Z,89.9
2022-08-22T01:05:01.030Z,89.7
2022-08-22T01:06:01.164Z,89.3
2022-08-22T01:07:00.318Z,89.9
2022-08-22T01:08:00.476Z,90.6
2022-08-22T01:09:00.623Z,90.9
2022-08-22T01:10:00.798Z,90.8
2022-08-22T01:11:00.920Z,90.7
2022-08-22T01:12:01.070Z,90.6
2022-08-22T01:13:01.216Z,90.6
2022-08-22T01:14:00.368Z,90.6
2022-08-22T01:15:00.541Z,90.7
2022-08-22T01:16:00.667Z,91.2
2022-08-22T01:17:00.828Z,90.5
2022-08-22T01:18:00.970Z,90.5
2022-08-22T01:19:01.126Z,90.7
2022-08-22T01:20:00.308Z,90.7
2022-08-22T01:21:00.418Z,90.7
2022-08-22T01:22:00.570Z,90.7
2022-08-22T01:23:00.716Z,91.1
2022-08-22T01:24:00.861Z,91
2022-08-22T01:25:01.052Z,90.8
2022-08-22T01:26:01.161Z,90.8
2022-08-22T01:27:00.322Z,90.7
2022-08-22T01:28:00.545Z,90.8
2022-08-22T01:29:00.628Z,90.7
2022-08-22T01:30:00.796Z,90.7
2022-08-22T01:31:00.924Z,90.6
2022-08-22T01:32:01.079Z,90.6
2022-08-22T01:33:01.214Z,90.6
2022-08-22T01:34:00.371Z,90.7
2022-08-22T01:35:00.563Z,90.7
2022-08-22T01:36:00.672Z,90.6
2022-08-22T01:37:00.824Z,90.6
2022-08-22T01:38:00.986Z,90.6
2022-08-22T01:39:01.128Z,90.5
2022-08-22T01:40:00.423Z,90.8
2022-08-22T01:41:00.431Z,90.7
2022-08-22T01:42:00.598Z,90.7
2022-08-22T01:43:00.746Z,90.9
2022-08-22T01:44:01.262Z,91
2022-08-22T01:45:01.071Z,90.9
2022-08-22T01:46:01.193Z,90.9
2022-08-22T01:47:00.346Z,90.9
2022-08-22T01:48:00.741Z,90.8
2022-08-22T01:49:00.651Z,90.8
2022-08-22T01:50:00.834Z,90.8
2022-08-22T01:51:00.961Z,90.9
2022-08-22T01:52:01.105Z,90.9
2022-08-22T01:53:00.260Z,90.8
2022-08-22T01:54:00.418Z,90.8
2022-08-22T01:55:00.591Z,90.7
2022-08-22T01:56:00.715Z,90.8
2022-08-22T01:57:00.868Z,90.9
2022-08-22T01:58:01.137Z,91.1
2022-08-22T01:59:01.858Z,91.1
2022-08-22T02:00:00.357Z,91.1
2022-08-22T02:01:00.487Z,91.1
2022-08-22T02:02:00.627Z,91.1
2022-08-22T02:03:00.769Z,91
2022-08-22T02:04:00.940Z,90.9
2022-08-22T02:05:01.098Z,90.7
2022-08-22T02:06:01.219Z,90.8
2022-08-22T02:07:00.376Z,90.8
2022-08-22T02:08:00.645Z,90.8
2022-08-22T02:09:00.674Z,90.9
2022-08-22T02:10:00.834Z,91
2022-08-22T02:11:00.960Z,91.1
2022-08-22T02:12:01.125Z,91
2022-08-22T02:13:00.269Z,91
2022-08-22T02:14:00.439Z,91.3
2022-08-22T02:15:00.604Z,91.5
2022-08-22T02:16:00.735Z,91.2
2022-08-22T02:17:00.886Z,90.9
2022-08-22T02:18:01.272Z,90.8
2022-08-22T02:19:01.198Z,91.1
2022-08-22T02:20:00.367Z,91.2
2022-08-22T02:21:00.530Z,91.1
2022-08-22T02:22:00.651Z,91.3
2022-08-22T02:23:00.810Z,91.5
2022-08-22T02:24:00.957Z,91.4
2022-08-22T02:25:01.132Z,91.3
2022-08-22T02:26:01.247Z,91.4
2022-08-22T02:27:00.394Z,91.3
2022-08-22T02:28:00.730Z,91.2
2022-08-22T02:29:00.687Z,91.3
2022-08-22T02:30:00.860Z,91.1
2022-08-22T02:31:01.003Z,91.2
2022-08-22T02:32:01.144Z,91.1
2022-08-22T02:33:00.297Z,90.7
2022-08-22T02:34:00.452Z,91
2022-08-22T02:35:00.606Z,90.7
2022-08-22T02:36:00.760Z,90.7
2022-08-22T02:37:00.896Z,90.9
2022-08-22T02:38:01.036Z,91
2022-08-22T02:39:01.195Z,90.8
2022-08-22T02:40:00.416Z,91.1
2022-08-22T02:41:00.517Z,91.2
2022-08-22T02:42:00.629Z,90.7
2022-08-22T02:43:00.782Z,90.8
2022-08-22T02:44:00.938Z,90.6
2022-08-22T02:45:01.089Z,90.8
2022-08-22T02:46:01.265Z,90.9
2022-08-22T02:47:00.385Z,91.2
2022-08-22T02:48:00.646Z,91.2
2022-08-22T02:49:00.686Z,91.4
2022-08-22T02:50:00.843Z,91.4
2022-08-22T02:51:01.029Z,91.4
2022-08-22T02:52:01.151Z,91.5
2022-08-22T02:53:00.300Z,91.6
2022-08-22T02:54:00.448Z,91.5
2022-08-22T02:55:00.599Z,91.5
2022-08-22T02:56:00.779Z,91.4
2022-08-22T02:57:00.906Z,91.5
2022-08-22T02:58:01.158Z,91.7
2022-08-22T02:59:01.217Z,91.3
2022-08-22T03:00:00.368Z,91.1
2022-08-22T03:01:00.597Z,91.4
2022-08-22T03:02:00.700Z,91.4
2022-08-22T03:03:00.821Z,91.5
2022-08-22T03:04:00.973Z,91.6
2022-08-22T03:05:01.128Z,91.4
2022-08-22T03:06:01.615Z,91.4
2022-08-22T03:07:00.463Z,91.6
2022-08-22T03:08:00.712Z,91.5
2022-08-22T03:09:00.742Z,91.7
2022-08-22T03:10:00.883Z,92
2022-08-22T03:11:01.032Z,91.9
2022-08-22T03:12:01.219Z,91.8
2022-08-22T03:13:00.331Z,91.9
2022-08-22T03:14:00.487Z,91.8
2022-08-22T03:15:00.640Z,91.8
2022-08-22T03:16:00.782Z,91.5
2022-08-22T03:17:00.952Z,91.6
2022-08-22T03:18:01.260Z,91.5
2022-08-22T03:19:01.235Z,91.6
2022-08-22T03:20:00.399Z,91.8
2022-08-22T03:21:00.539Z,91.5
2022-08-22T03:22:00.730Z,91.3
2022-08-22T03:23:00.831Z,91.7
2022-08-22T03:24:00.987Z,91.5
2022-08-22T03:25:01.136Z,91.1
2022-08-22T03:26:00.290Z,90.8
2022-08-22T03:27:00.441Z,90.7
2022-08-22T03:28:00.756Z,91.1
2022-08-22T03:29:00.740Z,91.5
2022-08-22T03:30:00.893Z,91.7
2022-08-22T03:31:01.058Z,91.9
2022-08-22T03:32:01.214Z,91.8
2022-08-22T03:33:00.346Z,91.8
2022-08-22T03:34:00.495Z,91.8
2022-08-22T03:35:00.645Z,91.5
2022-08-22T03:36:00.814Z,91.3
2022-08-22T03:37:00.990Z,90.9
2022-08-22T03:38:01.121Z,91.1
2022-08-22T03:39:00.270Z,91.6
2022-08-22T03:40:00.522Z,92
2022-08-22T03:41:00.561Z,91.9
2022-08-22T03:42:00.758Z,91.5
2022-08-22T03:43:00.868Z,91.6
2022-08-22T03:44:01.026Z,91.9
2022-08-22T03:45:01.161Z,92
2022-08-22T03:46:00.314Z,92
2022-08-22T03:47:00.486Z,91.8
2022-08-22T03:48:00.786Z,91.7
2022-08-22T03:49:00.777Z,91.7
2022-08-22T03:50:00.944Z,91.8
2022-08-22T03:51:01.077Z,92.1
2022-08-22T03:52:01.267Z,92
2022-08-22T03:53:00.389Z,91.8
2022-08-22T03:54:00.530Z,91.9
2022-08-22T03:55:00.679Z,91.6
2022-08-22T03:56:00.828Z,91.2
2022-08-22T03:57:01.021Z,91.4
2022-08-22T03:58:01.131Z,91.3
2022-08-22T03:59:00.280Z,91.6
2022-08-22T04:00:00.433Z,92
2022-08-22T04:01:00.640Z,91.6
2022-08-22T04:02:00.766Z,91.5
2022-08-22T04:03:00.883Z,91.2
2022-08-22T04:04:01.044Z,91.3
2022-08-22T04:05:01.196Z,91.1
2022-08-22T04:06:00.332Z,90.9
2022-08-22T04:07:00.510Z,91.2
2022-08-22T04:08:00.772Z,91.3
2022-08-22T04:09:00.784Z,91.3
2022-08-22T04:10:00.937Z,91.7
2022-08-22T04:11:02.508Z,91.6
2022-08-22T04:12:01.265Z,91
2022-08-22T04:13:00.387Z,90.9
2022-08-22T04:14:00.540Z,91.5
2022-08-22T04:15:00.687Z,91.6
2022-08-22T04:16:00.831Z,91.8
2022-08-22T04:17:00.992Z,92.1
2022-08-22T04:18:01.134Z,92
2022-08-22T04:19:00.277Z,91.9
2022-08-22T04:20:00.489Z,92
2022-08-22T04:21:00.637Z,92.1
2022-08-22T04:22:00.760Z,92.2
2022-08-22T04:23:00.884Z,91.8
2022-08-22T04:24:01.040Z,91.9
2022-08-22T04:25:05.847Z,92
2022-08-22T04:26:00.331Z,92
2022-08-22T04:27:00.504Z,91.7
2022-08-22T04:28:00.630Z,91.9
2022-08-22T04:29:00.781Z,91.9
2022-08-22T04:30:00.933Z,92
2022-08-22T04:31:01.097Z,92
2022-08-22T04:32:01.275Z,91.7
2022-08-22T04:33:00.406Z,91.7
2022-08-22T04:34:00.542Z,91.8
2022-08-22T04:35:00.700Z,91.8
2022-08-22T04:36:00.841Z,92
2022-08-22T04:37:01.014Z,91.6
2022-08-22T04:38:01.188Z,91.5
2022-08-22T04:39:00.300Z,91.6
2022-08-22T04:40:00.581Z,91.6
2022-08-22T04:41:03.959Z,91.9
2022-08-22T04:42:11.094Z,91.6
2022-08-22T04:43:00.889Z,91.6
2022-08-22T04:44:01.041Z,91.9
2022-08-22T04:45:01.196Z,92.2
2022-08-22T04:46:00.360Z,92.2
2022-08-22T04:47:00.526Z,92.1
2022-08-22T04:48:00.738Z,92
2022-08-22T04:49:00.811Z,92
2022-08-22T04:50:00.954Z,92
2022-08-22T04:51:01.106Z,92
2022-08-22T04:52:01.258Z,91.9
2022-08-22T04:53:00.395Z,91.9
2022-08-22T04:54:00.531Z,92
2022-08-22T04:55:00.677Z,92.2
2022-08-22T04:56:05.287Z,92.2
2022-08-22T04:57:00.999Z,92.2
2022-08-22T04:58:01.128Z,92.3
2022-08-22T04:59:00.276Z,92.3
2022-08-22T05:00:00.435Z,92.2
2022-08-22T05:01:00.586Z,92.2
2022-08-22T05:02:00.812Z,92.2
2022-08-22T05:03:00.877Z,92.1
2022-08-22T05:04:01.038Z,92.4
2022-08-22T05:05:01.199Z,92.4
2022-08-22T05:06:00.335Z,92.2
2022-08-22T05:07:00.510Z,92.1
2022-08-22T05:08:00.824Z,92.1
2022-08-22T05:09:00.793Z,92.5
2022-08-22T05:10:00.950Z,92.8
2022-08-22T05:11:01.132Z,92.6
2022-08-22T05:12:00.300Z,92.3
2022-08-22T05:13:00.440Z,92.3
2022-08-22T05:14:00.592Z,91.9
2022-08-22T05:15:00.724Z,91.6
2022-08-22T05:16:00.886Z,91.5
2022-08-22T05:17:01.060Z,91.4
2022-08-22T05:18:01.180Z,91.4
2022-08-22T05:19:00.332Z,91.5
2022-08-22T05:20:00.488Z,91.6
2022-08-22T05:21:00.639Z,91.5
2022-08-22T05:22:00.815Z,91.6
2022-08-22T05:23:00.963Z,91.5
2022-08-22T05:24:01.081Z,91.3
2022-08-22T05:25:01.239Z,91.3
2022-08-22T05:26:00.384Z,91.2
2022-08-22T05:27:00.526Z,91.3
2022-08-22T05:28:00.743Z,91
2022-08-22T05:29:00.832Z,91.1
2022-08-22T05:30:00.980Z,91.4
2022-08-22T05:31:01.130Z,91.7
2022-08-22T05:32:00.296Z,91.7
2022-08-22T05:33:00.451Z,91.5
2022-08-22T05:34:00.593Z,91.8
2022-08-22T05:35:00.736Z,91.6
2022-08-22T05:36:00.872Z,91.8
2022-08-22T05:37:01.018Z,91.5
2022-08-22T05:38:01.200Z,91.5
2022-08-22T05:39:00.314Z,91.4
2022-08-22T05:40:00.540Z,91.3
2022-08-22T05:41:00.628Z,91.4
2022-08-22T05:42:00.789Z,91.4
2022-08-22T05:43:00.947Z,91.4
2022-08-22T05:44:01.089Z,91.5
2022-08-22T05:45:01.232Z,91.6
2022-08-22T05:46:00.376Z,91.5
2022-08-22T05:47:00.563Z,91.4
2022-08-22T05:48:00.686Z,91.2
2022-08-22T05:49:00.821Z,91.1
2022-08-22T05:50:00.980Z,90.9
2022-08-22T05:51:01.124Z,91
2022-08-22T05:52:00.305Z,91.1
2022-08-22T05:53:00.436Z,91.1
2022-08-22T05:54:00.572Z,91
2022-08-22T05:55:00.723Z,91.1
2022-08-22T05:56:00.880Z,91.2
2022-08-22T05:57:03.901Z,91.1
2022-08-22T05:58:01.208Z,91
2022-08-22T05:59:00.353Z,90.8
2022-08-22T06:00:00.500Z,90.8
2022-08-22T06:01:00.648Z,90.7
2022-08-22T06:02:00.873Z,90.8
2022-08-22T06:03:00.971Z,90.7
2022-08-22T06:04:01.122Z,90.6
2022-08-22T06:05:00.254Z,90.6
2022-08-22T06:06:00.406Z,90.8
2022-08-22T06:07:00.564Z,90.9
2022-08-22T06:08:00.709Z,90.9
2022-08-22T06:09:00.884Z,90.9
2022-08-22T06:10:01.021Z,90.9
2022-08-22T06:11:01.163Z,90.9
2022-08-22T06:12:00.321Z,90.9
2022-08-22T06:13:00.464Z,91
2022-08-22T06:14:00.628Z,90.9
2022-08-22T06:15:00.752Z,90.9
2022-08-22T06:16:00.908Z,91
2022-08-22T06:17:01.061Z,91.1
2022-08-22T06:18:01.211Z,90.8
2022-08-22T06:19:00.383Z,90.6
2022-08-22T06:20:00.513Z,90.6
2022-08-22T06:21:00.663Z,90.6
2022-08-22T06:22:00.808Z,90.5
2022-08-22T06:23:00.961Z,90.3
2022-08-22T06:24:01.131Z,90.3
2022-08-22T06:25:00.264Z,90.2
2022-08-22T06:26:00.418Z,90
2022-08-22T06:27:00.578Z,89.9
2022-08-22T06:28:00.735Z,89.9
2022-08-22T06:29:00.898Z,90
2022-08-22T06:30:01.021Z,90
2022-08-22T06:31:01.168Z,90
2022-08-22T06:32:00.331Z,89.9
2022-08-22T06:33:00.543Z,89.8
2022-08-22T06:34:00.648Z,89.6
2022-08-22T06:35:00.825Z,89.6
2022-08-22T06:36:00.947Z,89.7
2022-08-22T06:37:01.091Z,89.7
2022-08-22T06:38:01.231Z,89.4
2022-08-22T06:39:00.377Z,89.3
2022-08-22T06:40:00.621Z,89.2
2022-08-22T06:41:00.708Z,89.1
2022-08-22T06:42:00.840Z,89
2022-08-22T06:43:00.986Z,88.8
2022-08-22T06:44:01.148Z,88.8
2022-08-22T06:45:00.285Z,88.7
2022-08-22T06:46:00.449Z,88.9
2022-08-22T06:47:00.608Z,88.8
2022-08-22T06:48:01.054Z,88.7
2022-08-22T06:49:00.880Z,88.7
2022-08-22T06:50:01.053Z,88.5
2022-08-22T06:51:01.202Z,88.5
2022-08-22T06:52:00.376Z,88.4
2022-08-22T06:53:00.510Z,88.4
2022-08-22T06:54:00.650Z,88.3
2022-08-22T06:55:00.794Z,88.7
2022-08-22T06:56:00.945Z,88.7
2022-08-22T06:57:01.122Z,88.6
2022-08-22T06:58:01.255Z,88.3
2022-08-22T06:59:00.402Z,88.3
2022-08-22T07:00:00.557Z,88.3
2022-08-22T07:01:11.973Z,88.3
2022-08-22T07:02:00.950Z,88.4
2022-08-22T07:03:00.993Z,88
2022-08-22T07:04:01.136Z,87.9
2022-08-22T07:05:00.278Z,88.1
2022-08-22T07:06:00.439Z,88.1
2022-08-22T07:07:00.603Z,88.2
2022-08-22T07:08:00.951Z,88.2
2022-08-22T07:09:05.673Z,88.4
2022-08-22T07:10:01.033Z,88.6
2022-08-22T07:11:01.190Z,88.3
2022-08-22T07:12:00.339Z,88.2
2022-08-22T07:13:00.517Z,87.9
2022-08-22T07:14:00.644Z,87.8
2022-08-22T07:15:00.796Z,87.9
2022-08-22T07:16:00.936Z,87.9
2022-08-22T07:17:01.093Z,87.9
2022-08-22T07:18:01.250Z,87.7
2022-08-22T07:19:00.386Z,87.4
2022-08-22T07:20:00.536Z,87.6
2022-08-22T07:21:00.698Z,87.7
2022-08-22T07:22:00.836Z,87.6
2022-08-22T07:23:01.024Z,87.4
2022-08-22T07:24:01.158Z,87.6
2022-08-22T07:25:00.292Z,87.6
2022-08-22T07:26:00.451Z,87.5
2022-08-22T07:27:00.589Z,87.1
2022-08-22T07:28:00.929Z,87.1
2022-08-22T07:29:00.892Z,87
2022-08-22T07:30:01.027Z,86.8
2022-08-22T07:31:01.192Z,86.8
2022-08-22T07:32:00.340Z,86.7
2022-08-22T07:33:15.302Z,86.8
2022-08-22T07:34:00.666Z,86.7
2022-08-22T07:35:00.784Z,86.8
2022-08-22T07:36:00.921Z,86.5
2022-08-22T07:37:01.081Z,86.2
2022-08-22T07:38:01.496Z,86.1
2022-08-22T07:39:00.397Z,86.4
2022-08-22T07:40:00.550Z,86.3
2022-08-22T07:41:00.685Z,85.7
2022-08-22T07:42:00.837Z,85.7
2022-08-22T07:43:00.987Z,86.2
2022-08-22T07:44:01.156Z,85.5
2022-08-22T07:45:00.285Z,85.4
2022-08-22T07:46:00.428Z,85.2
2022-08-22T07:47:00.591Z,85.3
2022-08-22T07:48:00.925Z,85.2
2022-08-22T07:49:09.478Z,85.2
2022-08-22T07:50:01.037Z,85.2
2022-08-22T07:51:01.197Z,85.3
2022-08-22T07:52:00.332Z,85.2
2022-08-22T07:53:00.488Z,84.8
2022-08-22T07:54:01.006Z,84.7
2022-08-22T07:55:00.805Z,84.9
2022-08-22T07:56:00.943Z,84.5
2022-08-22T07:57:01.091Z,84.3
2022-08-22T07:58:01.246Z,84.3
2022-08-22T07:59:00.397Z,84.6
2022-08-22T08:00:00.567Z,83.8
2022-08-22T08:01:00.764Z,83.9
2022-08-22T08:02:00.852Z,84.1
2022-08-22T08:03:01.004Z,84.3
2022-08-22T08:04:01.175Z,83.3
2022-08-22T08:05:00.351Z,83.6
2022-08-22T08:06:00.507Z,84
2022-08-22T08:07:00.636Z,83.8
2022-08-22T08:08:00.892Z,83.3
2022-08-22T08:09:00.946Z,83.4
2022-08-22T08:10:01.087Z,83.1
2022-08-22T08:11:01.282Z,83
2022-08-22T08:12:00.396Z,82.2
2022-08-22T08:13:02.470Z,81.6
2022-08-22T08:14:00.691Z,81.4
2022-08-22T08:15:00.836Z,82.2
2022-08-22T08:16:01.018Z,82.4
2022-08-22T08:17:01.144Z,81.1
2022-08-22T08:18:00.458Z,78.8
2022-08-22T08:19:00.428Z,80.2
2022-08-22T08:20:00.580Z,78.7
2022-08-22T08:21:00.752Z,79.5
2022-08-22T08:22:00.912Z,78.9
2022-08-22T08:23:01.035Z,77.3
2022-08-22T08:24:01.188Z,77
2022-08-22T08:25:00.334Z,77.5
2022-08-22T08:26:00.492Z,77.6
2022-08-22T08:27:00.653Z,79
2022-08-22T08:28:00.897Z,78.8
2022-08-22T08:29:00.937Z,79.2
2022-08-22T08:30:01.074Z,78.2
2022-08-22T08:31:01.233Z,79.1
2022-08-22T08:32:00.404Z,79
2022-08-22T08:33:24.975Z,79.2
2022-08-22T08:34:00.691Z,79.2
2022-08-22T08:35:00.838Z,78.8
2022-08-22T08:36:02.909Z,78.7
2022-08-22T08:37:01.171Z,78.6
2022-08-22T08:38:00.543Z,78.9
2022-08-22T08:39:00.446Z,78.8
2022-08-22T08:40:00.622Z,75.6
2022-08-22T08:41:00.740Z,76.7
2022-08-22T08:42:00.916Z,76.3
2022-08-22T08:43:01.040Z,75.2
2022-08-22T08:44:01.187Z,74.8
2022-08-22T08:45:00.338Z,74.3
2022-08-22T08:46:00.483Z,73.6
2022-08-22T08:47:00.655Z,74.8
2022-08-22T08:48:00.979Z,74.8
2022-08-22T08:49:00.945Z,75.1
2022-08-22T08:50:01.085Z,76.4
2022-08-22T08:51:02.143Z,73.7
2022-08-22T08:52:00.408Z,74.7
2022-08-22T08:53:00.541Z,74.3
2022-08-22T08:54:00.690Z,74
2022-08-22T08:55:00.852Z,73.1
2022-08-22T08:56:00.983Z,72.9
2022-08-22T08:57:01.162Z,73.1
2022-08-22T08:58:06.546Z,72.6
2022-08-22T08:59:00.442Z,73.2
2022-08-22T09:00:00.591Z,73.7
2022-08-22T09:01:02.095Z,73.7
2022-08-22T09:02:00.912Z,73.7
2022-08-22T09:03:01.051Z,73
2022-08-22T09:04:01.207Z,72.9
2022-08-22T09:05:00.335Z,72.5
2022-08-22T09:06:00.490Z,72.1
2022-08-22T09:07:01.093Z,72.1
2022-08-22T09:08:00.966Z,73.5
2022-08-22T09:09:00.948Z,75.4
2022-08-22T09:10:01.097Z,74.9
2022-08-22T09:11:01.243Z,72.9
2022-08-22T09:12:00.417Z,72.1
2022-08-22T09:13:12.471Z,72.3
2022-08-22T09:14:00.698Z,72.1
2022-08-22T09:15:00.842Z,74.1
2022-08-22T09:16:04.693Z,73
2022-08-22T09:17:01.155Z,72.4
2022-08-22T09:18:00.693Z,71.4
2022-08-22T09:19:00.493Z,70.8
2022-08-22T09:20:00.589Z,71.6
2022-08-22T09:21:00.736Z,72.5
2022-08-22T09:22:00.881Z,72.5
2022-08-22T09:23:01.031Z,71.7
2022-08-22T09:24:01.198Z,70.5
2022-08-22T09:25:00.340Z,71.1
2022-08-22T09:26:00.521Z,72.1
2022-08-22T09:27:00.635Z,72.8
2022-08-22T09:28:01.103Z,74
2022-08-22T09:29:00.945Z,72.8
2022-08-22T09:30:01.112Z,74.1
2022-08-22T09:31:01.235Z,71
2022-08-22T09:32:00.405Z,70.8
2022-08-22T09:33:00.538Z,71.6
2022-08-22T09:34:00.702Z,71.2
2022-08-22T09:35:00.854Z,71.6
2022-08-22T09:36:01.103Z,72.1
2022-08-22T09:37:01.147Z,71
2022-08-22T09:38:00.579Z,71.7
2022-08-22T09:39:00.451Z,70.8
2022-08-22T09:40:00.664Z,71.3
2022-08-22T09:41:00.751Z,72.8
2022-08-22T09:42:00.897Z,72.7
2022-08-22T09:43:01.349Z,72.4
2022-08-22T09:44:01.188Z,73.7
2022-08-22T09:45:00.361Z,70.8
2022-08-22T09:46:01.981Z,71.9
2022-08-22T09:47:00.694Z,73
2022-08-22T09:48:06.395Z,70.7
2022-08-22T09:49:00.964Z,71.8
2022-08-22T09:50:01.125Z,74.5
2022-08-22T09:51:08.471Z,73.3
2022-08-22T09:52:04.803Z,71.4
2022-08-22T09:53:00.757Z,71
2022-08-22T09:54:00.739Z,69.9
2022-08-22T09:55:01.641Z,70.5
2022-08-22T09:56:01.044Z,69.9
2022-08-22T09:57:01.233Z,69.9
2022-08-22T09:58:00.335Z,70
2022-08-22T09:59:00.493Z,71.2
2022-08-22T10:00:00.630Z,70.3
2022-08-22T10:01:00.843Z,70
2022-08-22T10:02:00.924Z,67.8
2022-08-22T10:03:01.408Z,68.2
2022-08-22T10:04:01.207Z,67.9
2022-08-22T10:05:00.370Z,66.2
2022-08-22T10:06:00.505Z,68
2022-08-22T10:07:00.686Z,67.4
2022-08-22T10:08:00.855Z,68
2022-08-22T10:09:00.984Z,67.5
2022-08-22T10:10:01.146Z,67.8
2022-08-22T10:11:00.292Z,69.5
2022-08-22T10:12:00.475Z,67.9
2022-08-22T10:13:00.879Z,67
2022-08-22T10:14:01.491Z,67.2
2022-08-22T10:15:00.909Z,68.2
2022-08-22T10:16:01.054Z,68.2
2022-08-22T10:17:01.206Z,66.6
2022-08-22T10:18:00.377Z,67.7
2022-08-22T10:19:00.862Z,67.4
2022-08-22T10:20:00.671Z,67
2022-08-22T10:21:00.824Z,66.2
2022-08-22T10:22:00.978Z,67
2022-08-22T10:23:01.313Z,67.2
2022-08-22T10:24:00.272Z,67.8
2022-08-22T10:25:00.429Z,67.3
2022-08-22T10:26:00.572Z,66.7
2022-08-22T10:27:00.726Z,66.4
2022-08-22T10:28:00.901Z,67.7
2022-08-22T10:29:01.011Z,67.1
2022-08-22T10:30:01.163Z,66.4
2022-08-22T10:31:00.319Z,66.2
2022-08-22T10:32:02.045Z,66.7
2022-08-22T10:33:00.926Z,66.6
2022-08-22T10:34:00.789Z,66
2022-08-22T10:35:00.932Z,66
2022-08-22T10:36:01.070Z,65.4
2022-08-22T10:37:01.223Z,65.2
2022-08-22T10:38:00.379Z,65
2022-08-22T10:39:01.348Z,65.6
2022-08-22T10:40:00.766Z,67.7
2022-08-22T10:41:00.833Z,67.9
2022-08-22T10:42:00.985Z,67.4
2022-08-22T10:43:01.350Z,66.1
2022-08-22T10:44:01.344Z,66.3
2022-08-22T10:45:00.459Z,67.5
2022-08-22T10:46:00.601Z,67.8
2022-08-22T10:47:00.745Z,66.1
2022-08-22T10:48:00.923Z,66.2
2022-08-22T10:49:05.728Z,66.9
2022-08-22T10:50:01.174Z,68.1
2022-08-22T10:51:00.333Z,68.4
2022-08-22T10:52:09.707Z,67.7
2022-08-22T10:53:00.852Z,66.3
2022-08-22T10:54:00.847Z,66.8
2022-08-22T10:55:00.948Z,66.7
2022-08-22T10:56:01.107Z,66.5
2022-08-22T10:57:01.238Z,66.6
2022-08-22T10:58:00.415Z,67.7
2022-08-22T10:59:00.567Z,67.7
2022-08-22T11:00:00.674Z,68.1
2022-08-22T11:01:00.912Z,66.8
2022-08-22T11:02:01.124Z,65.9
2022-08-22T11:03:01.346Z,66.4
2022-08-22T11:04:00.317Z,66.9
2022-08-22T11:05:00.431Z,67.3
2022-08-22T11:06:00.587Z,65.6
2022-08-22T11:07:00.726Z,66.1
2022-08-22T11:08:00.895Z,66.8
2022-08-22T11:09:01.025Z,66.3
2022-08-22T11:10:01.466Z,66.1
2022-08-22T11:11:00.332Z,67
2022-08-22T11:12:00.472Z,66
2022-08-22T11:13:00.879Z,66.2
2022-08-22T11:14:00.770Z,65.8
2022-08-22T11:15:00.917Z,65.2
2022-08-22T11:16:01.073Z,66.8
2022-08-22T11:17:01.229Z,67.7
2022-08-22T11:18:00.409Z,66.8
2022-08-22T11:19:02.946Z,65.8
2022-08-22T11:20:00.673Z,65.3
2022-08-22T11:21:00.828Z,66.2
2022-08-22T11:22:00.966Z,63.8
2022-08-22T11:23:01.304Z,64.4
2022-08-22T11:24:00.484Z,64.6
2022-08-22T11:25:04.179Z,65.2
2022-08-22T11:26:00.596Z,66.7
2022-08-22T11:27:00.736Z,64.8
2022-08-22T11:28:00.903Z,65.2
2022-08-22T11:29:07.828Z,66
2022-08-22T11:30:02.128Z,65.7
2022-08-22T11:31:00.347Z,66.1
2022-08-22T11:32:05.660Z,66
2022-08-22T11:33:01.007Z,65.1
2022-08-22T11:34:00.843Z,66.6
2022-08-22T11:35:00.951Z,66
2022-08-22T11:36:04.615Z,65.9
2022-08-22T11:37:01.252Z,66.8
2022-08-22T11:38:00.398Z,66
2022-08-22T11:39:01.171Z,65.2
2022-08-22T11:40:00.760Z,65.9
2022-08-22T11:41:00.848Z,66.1
2022-08-22T11:42:01.003Z,67
2022-08-22T11:43:03.157Z,66.9
2022-08-22T11:44:00.320Z,67.2
2022-08-22T11:45:00.447Z,66.3
2022-08-22T11:46:00.618Z,66.4
2022-08-22T11:47:00.755Z,67.7
2022-08-22T11:48:00.910Z,67
2022-08-22T11:49:01.324Z,68.3
2022-08-22T11:50:01.199Z,66.6
2022-08-22T11:51:00.355Z,66.4
2022-08-22T11:52:00.499Z,66.4
2022-08-22T11:53:01.476Z,66.6
2022-08-22T11:54:00.834Z,66.6
2022-08-22T11:55:00.976Z,67.8
2022-08-22T11:56:01.105Z,67.7
2022-08-22T11:58:00.358Z,66.6
2022-08-22T11:59:00.508Z,66.1
2022-08-22T12:00:00.685Z,66.4
2022-08-22T12:01:00.809Z,66.2
2022-08-22T12:02:01.002Z,65.2
2022-08-22T12:03:01.370Z,66.9
2022-08-22T12:04:00.256Z,65.5
2022-08-22T12:05:00.430Z,65.8
2022-08-22T12:06:00.561Z,66.4
2022-08-22T12:07:00.723Z,66.6
2022-08-22T12:08:00.876Z,66.1
2022-08-22T12:09:01.015Z,65.6
2022-08-22T12:10:01.236Z,65.8
2022-08-22T12:11:00.338Z,66.2
2022-08-22T12:12:00.501Z,66.4
2022-08-22T12:13:01.247Z,65.7
2022-08-22T12:14:03.988Z,67
2022-08-22T12:15:00.955Z,67.1
2022-08-22T12:16:01.084Z,67.9
2022-08-22T12:17:01.246Z,65.7
2022-08-22T12:18:01.902Z,67.3
2022-08-22T12:19:00.536Z,65.8
2022-08-22T12:20:16.597Z,66
2022-08-22T12:21:00.839Z,66.2
2022-08-22T12:22:01.000Z,65.7
2022-08-22T12:23:01.366Z,65.8
2022-08-22T12:24:00.288Z,66
2022-08-22T12:25:02.879Z,65.1
2022-08-22T12:26:00.591Z,66.5
2022-08-22T12:27:00.762Z,66.8
2022-08-22T12:28:00.903Z,65.8
2022-08-22T12:29:01.048Z,64.4
2022-08-22T12:30:01.223Z,66.1
2022-08-22T12:31:00.338Z,66.1
2022-08-22T12:32:00.524Z,65.4
2022-08-22T12:33:00.937Z,67.5
2022-08-22T12:34:00.807Z,66.6
2022-08-22T12:35:00.977Z,66.3
2022-08-22T12:36:01.117Z,65.9
2022-08-22T12:37:00.291Z,65.3
2022-08-22T12:38:00.432Z,66
2022-08-22T12:39:00.580Z,66.2
2022-08-22T12:40:00.829Z,65.7
2022-08-22T12:41:00.877Z,65.3
2022-08-22T12:42:01.050Z,66.2
2022-08-22T12:43:01.169Z,65.2
2022-08-22T12:44:00.319Z,64.5
2022-08-22T12:45:00.464Z,63.8
2022-08-22T12:46:00.626Z,65.1
2022-08-22T12:47:00.789Z,65.7
2022-08-22T12:48:01.155Z,66.4
2022-08-22T12:49:01.068Z,64.3
2022-08-22T12:50:01.213Z,64.9
2022-08-22T12:51:01.156Z,65.9
2022-08-22T12:52:04.540Z,65.5
2022-08-22T12:53:00.698Z,64
2022-08-22T12:54:00.825Z,64.6
2022-08-22T12:55:00.985Z,64.2
2022-08-22T12:56:01.131Z,63.6
2022-08-22T12:57:00.305Z,63.8
2022-08-22T12:58:00.591Z,64.2
2022-08-22T12:59:00.599Z,64.3
2022-08-22T13:00:01.779Z,64.7
2022-08-22T13:01:00.945Z,63
2022-08-22T13:02:01.079Z,63.2
2022-08-22T13:03:01.473Z,63
2022-08-22T13:04:00.342Z,63
2022-08-22T13:05:00.491Z,64.2
2022-08-22T13:06:00.810Z,64.4
2022-08-22T13:07:00.804Z,63.7
2022-08-22T13:08:04.655Z,63.7
2022-08-22T13:09:01.077Z,62.8
2022-08-22T13:10:01.235Z,64.4
2022-08-22T13:11:00.382Z,62.5
2022-08-22T13:12:00.533Z,63.4
2022-08-22T13:13:00.716Z,62.9
2022-08-22T13:14:00.842Z,63.4
2022-08-22T13:15:00.984Z,62.5
2022-08-22T13:16:01.132Z,63.2
2022-08-22T13:17:00.280Z,63.7
2022-08-22T13:18:18.932Z,63
2022-08-22T13:19:00.597Z,64
2022-08-22T13:20:00.739Z,63.5
2022-08-22T13:21:00.955Z,63.7
2022-08-22T13:22:01.053Z,63.1
2022-08-22T13:23:01.237Z,64.6
2022-08-22T13:24:00.367Z,64.1